Millville Municipal Airport Millville US
ICAO: KMIV
IATA: MIV
Category: Medium
Scheduled Services: No

Elevation: 85 ft
TransAlt. 18000 ft.

Airport Communications:
APP/DEP:124.6
ASOS:128.125
CTAF:123.65
RDO:123.65
UNICOM:123

KMIV Zoom In..

If Map Doesn't Load, Click Here

Runways:

(A) RW 10 length 6003 ft width 150 ft
ILS 110.90 / hdg 101

(B) RW 14 length 5058 ft width 150 ft
---- / hdg 146

(C) RW 28 length 6003 ft width 150 ft
---- / hdg 281

(D) RW 32 length 5058 ft width 150 ft
---- / hdg 326

Location; KMIV
Day. 23 / Time. 22.09 Zulu
* Altimeter: 30.21
* Temperature: 17° c. 62.6°f.
* Wind from: 360° Speed 04 kn.
Dewpoint: 17° c.
Visibility: 4 Statute Miles.
Clouds: Broken 500 ft.
Clouds: Broken 1600 ft.
Clouds: Overcast 3600 ft.
Conditions: Light Rain.Conditions: Mist.

KMIV 232209Z AUTO 36004KT 4SM -RA BR BKN005 BKN016 OVC036 17/17 A3021 RMK AO2 P0002 T01720172


Wind From 360°
Speed 04 kn.

 
 
jpsmedia.com for Web Design worldairports.se 2018   terms of use